createdAt,value
2023-04-15T00:00:57.499Z,93270.13
2023-04-15T00:03:24.680Z,93278.38
2023-04-15T00:05:51.984Z,93266.28
2023-04-15T00:08:18.462Z,93275.00
2023-04-15T00:10:46.454Z,93276.81
2023-04-15T00:13:12.917Z,93279.41
2023-04-15T00:15:39.384Z,93276.34
2023-04-15T00:18:05.878Z,93276.91
2023-04-15T00:20:32.268Z,93275.56
2023-04-15T00:22:59.385Z,93273.94
2023-04-15T00:25:26.228Z,93267.47
2023-04-15T00:27:52.646Z,93275.72
2023-04-15T00:30:19.650Z,93267.66
2023-04-15T00:32:46.833Z,93273.81
2023-04-15T00:35:13.821Z,93274.00
2023-04-15T00:37:40.440Z,93259.06
2023-04-15T00:40:12.874Z,93265.97
2023-04-15T00:42:39.695Z,93262.34
2023-04-15T00:45:07.152Z,93260.50
2023-04-15T00:47:35.518Z,93256.19
2023-04-15T00:50:02.148Z,93258.00
2023-04-15T00:52:28.611Z,93263.00
2023-04-15T00:54:55.745Z,93249.16
2023-04-15T00:57:22.815Z,93258.75
2023-04-15T00:59:51.248Z,93257.75
2023-04-15T01:02:17.883Z,93256.81
2023-04-15T01:04:44.382Z,93263.56
2023-04-15T01:07:10.987Z,93263.66
2023-04-15T01:09:37.689Z,93254.66
2023-04-15T01:12:05.021Z,93264.47
2023-04-15T01:14:31.959Z,93260.91
2023-04-15T01:16:58.548Z,93258.13
2023-04-15T01:19:25.418Z,93261.53
2023-04-15T01:21:52.583Z,93254.66
2023-04-15T01:24:19.210Z,93245.44
2023-04-15T01:26:46.606Z,93255.19
2023-04-15T01:29:13.197Z,93255.50
2023-04-15T01:31:39.654Z,93257.09
2023-04-15T01:34:06.073Z,93242.22
2023-04-15T01:36:32.531Z,93256.88
2023-04-15T01:38:59.443Z,93251.72
2023-04-15T01:41:27.430Z,93253.25
2023-04-15T01:43:54.905Z,93253.25
2023-04-15T01:46:21.509Z,93256.88
2023-04-15T01:48:47.965Z,93256.13
2023-04-15T01:51:14.465Z,93248.66
2023-04-15T01:53:41.351Z,93251.00
2023-04-15T01:56:08.496Z,93242.09
2023-04-15T01:58:35.108Z,93240.34
2023-04-15T02:01:02.925Z,93248.34
2023-04-15T02:03:31.669Z,93240.63
2023-04-15T02:05:58.507Z,93239.34
2023-04-15T02:08:25.062Z,93245.59
2023-04-15T02:10:51.693Z,93242.78
2023-04-15T02:13:18.151Z,93240.22
2023-04-15T02:15:48.854Z,93242.00
2023-04-15T02:18:16.810Z,93242.31
2023-04-15T02:20:43.868Z,93230.38
2023-04-15T02:23:11.132Z,93234.00
2023-04-15T02:25:39.040Z,93228.34
2023-04-15T02:28:06.347Z,93238.41
2023-04-15T02:30:33.981Z,93226.81
2023-04-15T02:33:02.382Z,93238.66
2023-04-15T02:35:29.050Z,93234.56
2023-04-15T02:37:55.847Z,93232.72
2023-04-15T02:40:22.697Z,93229.41
2023-04-15T02:42:49.195Z,93220.19
2023-04-15T02:45:19.541Z,93228.88
2023-04-15T02:47:47.300Z,93229.41
2023-04-15T02:50:15.087Z,93232.72
2023-04-15T02:52:43.065Z,93235.03
2023-04-15T02:55:10.488Z,93232.16
2023-04-15T02:57:38.909Z,93233.22
2023-04-15T03:00:10.124Z,93229.59
2023-04-15T03:02:40.111Z,93240.91
2023-04-15T03:05:07.321Z,93235.75
2023-04-15T03:07:33.888Z,93237.06
2023-04-15T03:10:02.228Z,93239.16
2023-04-15T03:12:30.270Z,93239.16
2023-04-15T03:14:57.639Z,93233.50
2023-04-15T03:17:32.246Z,93234.06
2023-04-15T03:19:59.367Z,93241.31
2023-04-15T03:22:26.884Z,93232.03
2023-04-15T03:24:54.463Z,93234.59
2023-04-15T03:27:21.004Z,93231.28
2023-04-15T03:29:47.875Z,93234.34
2023-04-15T03:32:16.668Z,93234.91
2023-04-15T03:34:43.584Z,93236.69
2023-04-15T03:37:09.998Z,93238.81
2023-04-15T03:39:36.811Z,93227.72
2023-04-15T03:42:03.788Z,93230.03
2023-04-15T03:44:30.523Z,93237.75
2023-04-15T03:46:56.912Z,93236.69
2023-04-15T03:49:24.481Z,93238.50
2023-04-15T03:51:51.014Z,93233.16
2023-04-15T03:54:17.413Z,93229.59
2023-04-15T03:56:43.780Z,93228.41
2023-04-15T03:59:10.484Z,93240.03
2023-04-15T04:01:36.933Z,93230.75
2023-04-15T04:04:03.495Z,93233.34
2023-04-15T04:06:30.044Z,93227.41
2023-04-15T04:08:56.666Z,93232.84
2023-04-15T04:11:23.051Z,93227.69
2023-04-15T04:13:49.437Z,93228.47
2023-04-15T04:16:15.927Z,93227.91
2023-04-15T04:18:42.399Z,93225.81
2023-04-15T04:21:08.837Z,93221.13
2023-04-15T04:23:35.577Z,93226.84
2023-04-15T04:26:02.556Z,93224.56
2023-04-15T04:28:28.973Z,93225.59
2023-04-15T04:30:56.272Z,93229.44
2023-04-15T04:33:22.727Z,93232.31
2023-04-15T04:35:49.107Z,93229.25
2023-04-15T04:38:15.778Z,93230.28
2023-04-15T04:40:42.238Z,93233.88
2023-04-15T04:43:09.327Z,93239.34
2023-04-15T04:45:36.270Z,93230.34
2023-04-15T04:48:06.538Z,93227.69
2023-04-15T04:50:33.300Z,93233.81
2023-04-15T04:53:00.312Z,93234.03
2023-04-15T04:55:27.108Z,93232.72
2023-04-15T04:57:53.554Z,93237.31
2023-04-15T05:00:20.324Z,93238.09
2023-04-15T05:02:46.918Z,93239.66
2023-04-15T05:05:13.500Z,93236.00
2023-04-15T05:07:39.991Z,93235.75
2023-04-15T05:10:07.097Z,93237.53
2023-04-15T05:12:33.580Z,93224.19
2023-04-15T05:15:00.018Z,93247.88
2023-04-15T05:17:26.436Z,93238.59
2023-04-15T05:19:53.779Z,93246.06
2023-04-15T05:22:20.236Z,93248.84
2023-04-15T05:24:46.690Z,93248.50
2023-04-15T05:27:13.113Z,93251.50
2023-04-15T05:29:39.503Z,93251.44
2023-04-15T05:32:06.573Z,93259.13
2023-04-15T05:34:32.971Z,93257.72
2023-04-15T05:36:59.347Z,93257.09
2023-04-15T05:39:26.540Z,93254.72
2023-04-15T05:41:53.227Z,93260.44
2023-04-15T05:44:19.654Z,93253.19
2023-04-15T05:46:46.150Z,93258.25
2023-04-15T05:49:12.577Z,93251.22
2023-04-15T05:51:38.976Z,93259.09
2023-04-15T05:54:05.690Z,93258.47
2023-04-15T05:56:32.352Z,93264.56
2023-04-15T05:58:58.811Z,93262.88
2023-04-15T06:01:26.056Z,93267.09
2023-04-15T06:03:52.771Z,93265.19
2023-04-15T06:06:20.357Z,93271.06
2023-04-15T06:08:46.770Z,93265.53
2023-04-15T06:11:13.264Z,93263.13
2023-04-15T06:13:39.677Z,93269.47
2023-04-15T06:16:06.836Z,93265.72
2023-04-15T06:18:33.452Z,93262.50
2023-04-15T06:20:59.906Z,93264.44
2023-04-15T06:23:27.991Z,93261.66
2023-04-15T06:25:54.517Z,93257.03
2023-04-15T06:28:20.991Z,93265.94
2023-04-15T06:30:47.467Z,93260.59
2023-04-15T06:33:13.967Z,93264.50
2023-04-15T06:35:40.521Z,93267.34
2023-04-15T06:38:07.076Z,93265.97
2023-04-15T06:40:33.616Z,93267.81
2023-04-15T06:43:00.071Z,93272.94
2023-04-15T06:45:26.612Z,93266.94
2023-04-15T06:47:53.177Z,93269.13
2023-04-15T06:50:19.609Z,93271.19
2023-04-15T06:52:46.113Z,93274.31
2023-04-15T06:55:12.592Z,93275.72
2023-04-15T06:57:39.023Z,93271.09
2023-04-15T07:00:06.273Z,93276.78
2023-04-15T07:02:33.109Z,93280.66
2023-04-15T07:04:59.619Z,93277.84
2023-04-15T07:07:26.360Z,93278.63
2023-04-15T07:09:53.677Z,93272.00
2023-04-15T07:12:20.756Z,93258.56
2023-04-15T07:14:47.406Z,93274.03
2023-04-15T07:17:13.921Z,93273.63
2023-04-15T07:19:40.540Z,93270.09
2023-04-15T07:22:07.662Z,93273.34
2023-04-15T07:24:34.076Z,93265.72
2023-04-15T07:27:01.254Z,93259.94
2023-04-15T07:29:27.989Z,93263.59
2023-04-15T07:31:54.394Z,93262.38
2023-04-15T07:34:20.962Z,93270.00
2023-04-15T07:36:50.546Z,93265.88
2023-04-15T07:39:17.104Z,93269.72
2023-04-15T07:41:43.808Z,93260.84
2023-04-15T07:44:10.441Z,93259.31
2023-04-15T07:46:38.360Z,93267.59
2023-04-15T07:49:05.100Z,93268.06
2023-04-15T07:51:32.207Z,93266.22
2023-04-15T07:53:58.885Z,93261.63
2023-04-15T07:56:26.385Z,93265.00
2023-04-15T07:58:52.973Z,93258.25
2023-04-15T08:01:19.431Z,93261.34
2023-04-15T08:03:46.350Z,93265.63
2023-04-15T08:06:12.998Z,93264.22
2023-04-15T08:08:39.431Z,93260.84
2023-04-15T08:11:05.932Z,93261.28
2023-04-15T08:13:32.352Z,93265.97
2023-04-15T08:16:16.573Z,93265.94
2023-04-15T08:18:43.015Z,93267.44
2023-04-15T08:21:10.175Z,93252.84
2023-04-15T08:23:36.841Z,93258.31
2023-04-15T08:26:03.460Z,93263.53
2023-04-15T08:28:30.070Z,93261.53
2023-04-15T08:30:57.137Z,93257.69
2023-04-15T08:33:23.662Z,93267.63
2023-04-15T08:35:50.062Z,93260.41
2023-04-15T08:38:16.839Z,93264.34
2023-04-15T08:40:45.473Z,93256.78
2023-04-15T08:43:28.655Z,93260.94
2023-04-15T08:45:55.758Z,93265.63
2023-04-15T08:48:24.480Z,93259.22
2023-04-15T08:50:51.206Z,93263.34
2023-04-15T08:53:17.961Z,93257.69
2023-04-15T08:55:46.084Z,93263.97
2023-04-15T08:58:13.608Z,93252.53
2023-04-15T09:00:41.238Z,93266.41
2023-04-15T09:03:08.869Z,93271.63
2023-04-15T09:05:36.749Z,93268.44
2023-04-15T09:08:04.333Z,93270.28
2023-04-15T09:10:31.694Z,93273.66
2023-04-15T09:12:58.848Z,93277.91
2023-04-15T09:15:27.549Z,93265.63
2023-04-15T09:17:54.235Z,93276.97
2023-04-15T09:20:20.946Z,93276.16
2023-04-15T09:22:49.666Z,93281.94
2023-04-15T09:25:25.294Z,93274.56
2023-04-15T09:27:59.996Z,93279.94
2023-04-15T09:30:28.522Z,93274.09
2023-04-15T09:33:00.497Z,93266.22
2023-04-15T09:35:27.965Z,93276.03
2023-04-15T09:38:09.664Z,93288.16
2023-04-15T09:40:37.923Z,93286.19
2023-04-15T09:43:06.042Z,93280.34
2023-04-15T09:45:33.683Z,93280.34
2023-04-15T09:48:15.748Z,93288.94
2023-04-15T09:50:43.909Z,93287.66
2023-04-15T09:53:12.331Z,93285.75
2023-04-15T09:55:38.772Z,93285.09
2023-04-15T09:58:22.374Z,93288.09
2023-04-15T10:00:50.740Z,93288.09
2023-04-15T10:03:22.849Z,93291.03
2023-04-15T10:05:51.697Z,93291.34
2023-04-15T10:08:20.636Z,93295.69
2023-04-15T10:10:48.891Z,93295.69
2023-04-15T10:13:18.566Z,93295.25
2023-04-15T10:15:51.505Z,93297.66
2023-04-15T10:18:20.486Z,93300.84
2023-04-15T10:20:48.882Z,93296.38
2023-04-15T10:23:15.819Z,93298.22
2023-04-15T10:25:42.912Z,93297.69
2023-04-15T10:28:09.839Z,93297.53
2023-04-15T10:30:36.696Z,93297.69
2023-04-15T10:33:04.291Z,93292.69
2023-04-15T10:35:32.851Z,93288.63
2023-04-15T10:37:59.769Z,93298.16
2023-04-15T10:40:28.055Z,93304.97
2023-04-15T10:42:55.893Z,93301.44
2023-04-15T10:45:22.589Z,93289.13
2023-04-15T10:47:55.063Z,93295.44
2023-04-15T10:50:22.220Z,93304.06
2023-04-15T10:52:51.906Z,93303.94
2023-04-15T10:55:26.673Z,93304.63
2023-04-15T10:57:54.923Z,93315.84
2023-04-15T11:00:25.686Z,93305.28
2023-04-15T11:03:07.127Z,93318.63
2023-04-15T11:05:42.963Z,93316.84
2023-04-15T11:08:13.393Z,93325.50
2023-04-15T11:10:39.730Z,93315.59
2023-04-15T11:13:17.222Z,93321.59
2023-04-15T11:15:45.675Z,93321.28
2023-04-15T11:18:20.198Z,93327.13
2023-04-15T11:21:00.248Z,93327.59
2023-04-15T11:23:35.747Z,93332.31
2023-04-15T11:26:06.702Z,93333.06
2023-04-15T11:28:33.355Z,93336.75
2023-04-15T11:31:10.795Z,93336.72
2023-04-15T11:33:38.039Z,93337.91
2023-04-15T11:36:04.825Z,93337.75
2023-04-15T11:38:31.627Z,93340.19
2023-04-15T11:40:58.249Z,93341.06
2023-04-15T11:43:25.132Z,93342.13
2023-04-15T11:45:56.260Z,93347.78
2023-04-15T11:48:27.891Z,93348.66
2023-04-15T11:51:05.829Z,93353.88
2023-04-15T11:53:49.343Z,93354.31
2023-04-15T11:56:24.475Z,93357.69
2023-04-15T11:58:57.164Z,93353.44
2023-04-15T12:01:35.166Z,93362.09
2023-04-15T12:04:02.849Z,93357.47
2023-04-15T12:06:38.734Z,93363.00
2023-04-15T12:09:17.578Z,93374.75
2023-04-15T12:11:57.605Z,93363.69
2023-04-15T12:14:32.443Z,93371.47
2023-04-15T12:17:01.318Z,93369.44
2023-04-15T12:19:30.463Z,93369.06
2023-04-15T12:22:05.370Z,93367.84
2023-04-15T12:24:33.566Z,93370.44
2023-04-15T12:27:06.062Z,93369.06
2023-04-15T12:29:34.336Z,93375.94
2023-04-15T12:32:19.700Z,93367.22
2023-04-15T12:34:54.279Z,93384.41
2023-04-15T12:37:21.394Z,93381.63
2023-04-15T12:39:49.300Z,93394.56
2023-04-15T12:42:17.295Z,93381.94
2023-04-15T12:44:43.920Z,93372.66
2023-04-15T12:47:11.727Z,93396.00
2023-04-15T12:49:39.280Z,93399.00
2023-04-15T12:52:05.768Z,93409.16
2023-04-15T12:54:32.763Z,93403.06
2023-04-15T12:56:59.633Z,93389.94
2023-04-15T12:59:26.073Z,93408.53
2023-04-15T13:01:54.340Z,93408.38
2023-04-15T13:04:21.794Z,93406.75
2023-04-15T13:06:48.444Z,93414.19
2023-04-15T13:09:15.654Z,93423.69
2023-04-15T13:11:42.343Z,93423.41
2023-04-15T13:14:11.652Z,93421.25
2023-04-15T13:16:38.786Z,93422.34
2023-04-15T13:19:05.483Z,93427.25
2023-04-15T13:21:35.261Z,93433.53
2023-04-15T13:24:02.489Z,93430.03
2023-04-15T13:26:29.184Z,93432.63
2023-04-15T13:28:56.309Z,93440.28
2023-04-15T13:31:22.886Z,93448.72
2023-04-15T13:33:49.376Z,93448.28
2023-04-15T13:36:18.923Z,93451.19
2023-04-15T13:38:45.380Z,93473.41
2023-04-15T13:41:12.131Z,93465.13
2023-04-15T13:43:38.549Z,93463.72
2023-04-15T13:46:05.275Z,93478.41
2023-04-15T13:48:31.733Z,93477.34
2023-04-15T13:50:58.176Z,93473.50
2023-04-15T13:53:37.941Z,93475.94
2023-04-15T13:56:07.284Z,93484.19
2023-04-15T13:58:33.871Z,93481.38
2023-04-15T14:01:01.195Z,93485.50
2023-04-15T14:03:28.532Z,93486.50
2023-04-15T14:05:56.893Z,93487.88
2023-04-15T14:08:24.996Z,93494.84
2023-04-15T14:10:51.444Z,93489.91
2023-04-15T14:13:19.517Z,93492.16
2023-04-15T14:15:46.493Z,93494.91
2023-04-15T14:18:12.947Z,93504.34
2023-04-15T14:20:39.380Z,93503.69
2023-04-15T14:23:05.782Z,93503.81
2023-04-15T14:25:33.968Z,93502.25
2023-04-15T14:28:01.349Z,93508.50
2023-04-15T14:30:27.819Z,93510.63
2023-04-15T14:32:54.324Z,93510.03
2023-04-15T14:35:20.820Z,93511.75
2023-04-15T14:37:47.230Z,93521.56
2023-04-15T14:40:13.672Z,93517.13
2023-04-15T14:42:40.085Z,93519.59
2023-04-15T14:45:06.943Z,93526.03
2023-04-15T14:47:33.395Z,93524.22
2023-04-15T14:50:00.575Z,93522.25
2023-04-15T14:52:27.023Z,93525.50
2023-04-15T14:54:53.459Z,93522.78
2023-04-15T14:57:19.829Z,93526.78
2023-04-15T14:59:46.330Z,93527.69
2023-04-15T15:02:17.269Z,93523.47
2023-04-15T15:04:53.362Z,93543.47
2023-04-15T15:07:20.432Z,93541.94
2023-04-15T15:09:46.878Z,93536.75
2023-04-15T15:12:13.280Z,93533.84
2023-04-15T15:14:39.653Z,93537.06
2023-04-15T15:17:06.239Z,93539.78
2023-04-15T15:19:33.065Z,93543.56
2023-04-15T15:21:59.496Z,93546.94
2023-04-15T15:24:25.928Z,93563.31
2023-04-15T15:26:52.334Z,93558.38
2023-04-15T15:29:18.835Z,93554.84
2023-04-15T15:31:45.434Z,93555.59
2023-04-15T15:34:11.894Z,93560.97
2023-04-15T15:36:38.292Z,93565.91
2023-04-15T15:39:05.289Z,93573.22
2023-04-15T15:41:33.318Z,93573.50
2023-04-15T15:43:59.852Z,93573.78
2023-04-15T15:46:27.918Z,93579.31
2023-04-15T15:48:54.679Z,93580.66
2023-04-15T15:51:21.136Z,93590.00
2023-04-15T15:53:47.866Z,93595.78
2023-04-15T15:56:14.347Z,93598.84
2023-04-15T15:58:41.731Z,93598.66
2023-04-15T16:01:08.318Z,93610.16
2023-04-15T16:03:34.856Z,93613.91
2023-04-15T16:06:01.612Z,93619.22
2023-04-15T16:08:28.138Z,93617.63
2023-04-15T16:10:54.794Z,93629.75
2023-04-15T16:13:21.965Z,93618.03
2023-04-15T16:15:50.204Z,93629.03
2023-04-15T16:18:17.286Z,93634.41
2023-04-15T16:20:44.051Z,93640.59
2023-04-15T16:23:16.117Z,93640.50
2023-04-15T16:25:44.062Z,93642.69
2023-04-15T16:28:25.213Z,93651.16
2023-04-15T16:30:53.420Z,93651.66
2023-04-15T16:33:20.068Z,93654.81
2023-04-15T16:35:46.474Z,93653.28
2023-04-15T16:38:12.929Z,93655.41
2023-04-15T16:40:39.332Z,93662.50
2023-04-15T16:43:11.093Z,93656.53
2023-04-15T16:45:37.792Z,93654.22
2023-04-15T16:48:04.598Z,93668.72
2023-04-15T16:50:31.416Z,93673.44
2023-04-15T16:52:57.836Z,93672.44
2023-04-15T16:55:24.254Z,93673.50
2023-04-15T16:58:01.991Z,93680.22
2023-04-15T17:00:31.078Z,93678.78
2023-04-15T17:02:57.897Z,93689.72
2023-04-15T17:05:24.612Z,93700.47
2023-04-15T17:07:51.056Z,93703.50
2023-04-15T17:10:17.501Z,93701.47
2023-04-15T17:12:43.988Z,93704.63
2023-04-15T17:15:10.462Z,93709.63
2023-04-15T17:17:36.905Z,93706.34
2023-04-15T17:20:04.142Z,93707.06
2023-04-15T17:22:30.687Z,93708.44
2023-04-15T17:24:57.136Z,93719.66
2023-04-15T17:27:24.661Z,93719.22
2023-04-15T17:29:51.084Z,93728.63
2023-04-15T17:32:17.825Z,93725.31
2023-04-15T17:34:50.252Z,93738.06
2023-04-15T17:37:17.764Z,93735.28
2023-04-15T17:39:44.270Z,93733.50
2023-04-15T17:42:11.254Z,93737.16
2023-04-15T17:44:37.669Z,93739.22
2023-04-15T17:47:04.161Z,93741.13
2023-04-15T17:49:31.261Z,93751.75
2023-04-15T17:51:57.672Z,93746.84
2023-04-15T17:54:24.078Z,93753.56
2023-04-15T17:56:50.624Z,93752.78
2023-04-15T17:59:17.633Z,93754.91
2023-04-15T18:01:45.381Z,93756.22
2023-04-15T18:04:12.260Z,93763.72
2023-04-15T18:06:39.122Z,93764.97
2023-04-15T18:09:06.512Z,93773.50
2023-04-15T18:11:33.461Z,93773.03
2023-04-15T18:14:02.270Z,93772.53
2023-04-15T18:16:28.763Z,93774.84
2023-04-15T18:18:55.585Z,93777.16
2023-04-15T18:21:22.042Z,93789.34
2023-04-15T18:23:48.455Z,93788.84
2023-04-15T18:26:14.877Z,93793.31
2023-04-15T18:28:41.364Z,93791.53
2023-04-15T18:31:07.810Z,93800.38
2023-04-15T18:33:35.709Z,93807.06
2023-04-15T18:36:02.561Z,93809.88
2023-04-15T18:38:29.246Z,93807.28
2023-04-15T18:40:55.990Z,93818.13
2023-04-15T18:43:22.376Z,93815.84
2023-04-15T18:45:48.933Z,93823.31
2023-04-15T18:48:15.964Z,93828.50
2023-04-15T18:50:43.127Z,93827.47
2023-04-15T18:53:09.621Z,93830.03
2023-04-15T18:55:36.163Z,93836.25
2023-04-15T18:58:06.495Z,93841.94
2023-04-15T19:00:38.879Z,93837.53
2023-04-15T19:03:06.168Z,93849.44
2023-04-15T19:05:32.878Z,93849.44
2023-04-15T19:07:59.790Z,93852.81
2023-04-15T19:10:27.964Z,93850.69
2023-04-15T19:12:55.197Z,93870.38
2023-04-15T19:15:21.690Z,93852.84
2023-04-15T19:17:48.217Z,93859.03
2023-04-15T19:20:14.747Z,93867.34
2023-04-15T19:22:42.932Z,93863.22
2023-04-15T19:25:09.743Z,93871.25
2023-04-15T19:27:38.082Z,93871.53
2023-04-15T19:30:06.318Z,93873.09
2023-04-15T19:32:32.757Z,93875.97
2023-04-15T19:34:59.256Z,93874.44
2023-04-15T19:37:25.779Z,93888.69
2023-04-15T19:39:54.439Z,93884.06
2023-04-15T19:42:20.846Z,93881.22
2023-04-15T19:44:47.279Z,93884.66
2023-04-15T19:47:13.733Z,93890.84
2023-04-15T19:49:40.413Z,93886.75
2023-04-15T19:52:06.825Z,93886.50
2023-04-15T19:54:33.303Z,93886.25
2023-04-15T19:56:59.757Z,93895.09
2023-04-15T19:59:26.199Z,93891.22
2023-04-15T20:01:53.080Z,93897.16
2023-04-15T20:04:19.595Z,93901.34
2023-04-15T20:06:46.058Z,93899.59
2023-04-15T20:09:12.677Z,93895.69
2023-04-15T20:12:48.134Z,93895.69
2023-04-15T20:14:25.537Z,93897.00
2023-04-15T20:16:51.990Z,93900.91
2023-04-15T20:19:18.396Z,93907.34
2023-04-15T20:21:45.312Z,93900.91
2023-04-15T20:24:11.800Z,93906.63
2023-04-15T20:26:38.199Z,93915.44
2023-04-15T20:29:04.927Z,93913.38
2023-04-15T20:31:31.951Z,93918.56
2023-04-15T20:33:58.435Z,93914.91
2023-04-15T20:36:24.862Z,93918.03
2023-04-15T20:38:51.366Z,93922.41
2023-04-15T20:41:17.749Z,93914.69
2023-04-15T20:43:44.153Z,93925.84
2023-04-15T20:46:20.377Z,93923.28
2023-04-15T20:48:48.056Z,93921.22
2023-04-15T20:51:15.122Z,93929.50
2023-04-15T20:53:42.089Z,93929.50
2023-04-15T20:56:08.611Z,93924.09
2023-04-15T20:58:35.024Z,93936.75
2023-04-15T21:01:02.156Z,93933.66
2023-04-15T21:03:28.869Z,93932.34
2023-04-15T21:05:55.688Z,93930.53
2023-04-15T21:08:28.995Z,93934.91
2023-04-15T21:10:56.543Z,93941.09
2023-04-15T21:13:23.723Z,93940.03
2023-04-15T21:15:53.313Z,93941.56
2023-04-15T21:18:21.245Z,93943.66
2023-04-15T21:20:59.080Z,93950.09
2023-04-15T21:23:26.143Z,93952.69
2023-04-15T21:25:52.536Z,93951.66
2023-04-15T21:28:18.970Z,93952.16
2023-04-15T21:30:46.060Z,93953.47
2023-04-15T21:33:12.468Z,93958.88
2023-04-15T21:35:39.043Z,93963.78
2023-04-15T21:38:05.438Z,93965.03
2023-04-15T21:40:31.827Z,93966.84
2023-04-15T21:42:58.275Z,93968.38
2023-04-15T21:45:24.695Z,93970.72
2023-04-15T21:48:06.790Z,93974.56
2023-04-15T21:50:36.531Z,93968.13
2023-04-15T21:53:03.844Z,93970.97
2023-04-15T21:55:30.334Z,93975.34
2023-04-15T21:57:56.704Z,93976.41
2023-04-15T22:00:24.126Z,93979.78
2023-04-15T22:02:51.130Z,93979.22
2023-04-15T22:05:17.864Z,93984.63
2023-04-15T22:07:44.290Z,93983.09
2023-04-15T22:10:11.314Z,93986.44
2023-04-15T22:12:40.885Z,93988.78
2023-04-15T22:15:07.955Z,93989.56
2023-04-15T22:17:34.450Z,93988.78
2023-04-15T22:20:02.186Z,93993.97
2023-04-15T22:22:44.007Z,93991.38
2023-04-15T22:25:11.695Z,93997.53
2023-04-15T22:27:38.155Z,93994.41
2023-04-15T22:30:05.199Z,93998.56
2023-04-15T22:32:31.656Z,94000.63
2023-04-15T22:34:58.091Z,93999.84
2023-04-15T22:37:24.570Z,93994.41
2023-04-15T22:39:51.816Z,94003.50
2023-04-15T22:42:18.274Z,94003.25
2023-04-15T22:44:44.657Z,94009.16
2023-04-15T22:47:11.177Z,94011.22
2023-04-15T22:49:37.608Z,94009.66
2023-04-15T22:52:04.154Z,94010.69
2023-04-15T22:54:30.713Z,94014.59
2023-04-15T22:56:57.786Z,94016.13
2023-04-15T22:59:24.529Z,94015.09
2023-04-15T23:01:51.089Z,94019.75
2023-04-15T23:04:23.391Z,94024.16
2023-04-15T23:06:54.262Z,94021.84
2023-04-15T23:09:21.018Z,94017.72
2023-04-15T23:11:47.576Z,94014.34
2023-04-15T23:14:13.985Z,94020.28
2023-04-15T23:16:40.532Z,94020.53
2023-04-15T23:19:07.224Z,94025.19
2023-04-15T23:21:33.869Z,94027.78
2023-04-15T23:24:00.268Z,94035.03
2023-04-15T23:26:27.332Z,94029.56
2023-04-15T23:28:53.762Z,94027.00
2023-04-15T23:31:20.256Z,94031.13
2023-04-15T23:33:46.735Z,94032.13
2023-04-15T23:36:13.141Z,94034.47
2023-04-15T23:38:39.635Z,94038.34
2023-04-15T23:41:06.086Z,94029.28
2023-04-15T23:43:32.532Z,94031.59
2023-04-15T23:45:58.932Z,94032.63
2023-04-15T23:48:25.403Z,94035.22
2023-04-15T23:50:51.815Z,94041.38
2023-04-15T23:53:18.346Z,94036.19
2023-04-15T23:55:44.736Z,94039.81
2023-04-15T23:58:11.743Z,94044.44
